sensor_id;sensor_type;location;lat;lon;timestamp;P1;durP1;ratioP1;P2;durP2;ratioP2
18360;SDS011;9308;48.550;9.108;2023-04-05T00:00:41;10.40;;;9.50;;
18360;SDS011;9308;48.550;9.108;2023-04-05T00:03:07;10.10;;;9.30;;
18360;SDS011;9308;48.550;9.108;2023-04-05T00:05:34;11.87;;;11.00;;
18360;SDS011;9308;48.550;9.108;2023-04-05T00:08:00;9.57;;;8.77;;
18360;SDS011;9308;48.550;9.108;2023-04-05T00:10:27;10.33;;;9.43;;
18360;SDS011;9308;48.550;9.108;2023-04-05T00:12:53;11.40;;;10.30;;
18360;SDS011;9308;48.550;9.108;2023-04-05T00:15:20;10.13;;;9.37;;
18360;SDS011;9308;48.550;9.108;2023-04-05T00:17:46;11.07;;;10.27;;
18360;SDS011;9308;48.550;9.108;2023-04-05T00:20:12;10.23;;;9.33;;
18360;SDS011;9308;48.550;9.108;2023-04-05T00:22:38;10.53;;;9.70;;
18360;SDS011;9308;48.550;9.108;2023-04-05T00:25:06;11.37;;;10.47;;
18360;SDS011;9308;48.550;9.108;2023-04-05T00:27:32;10.97;;;10.07;;
18360;SDS011;9308;48.550;9.108;2023-04-05T00:29:57;11.40;;;10.47;;
18360;SDS011;9308;48.550;9.108;2023-04-05T00:32:22;11.97;;;11.07;;
18360;SDS011;9308;48.550;9.108;2023-04-05T00:34:48;12.03;;;11.13;;
18360;SDS011;9308;48.550;9.108;2023-04-05T00:37:14;11.83;;;10.80;;
18360;SDS011;9308;48.550;9.108;2023-04-05T00:39:40;11.67;;;10.57;;
18360;SDS011;9308;48.550;9.108;2023-04-05T00:42:05;12.60;;;11.60;;
18360;SDS011;9308;48.550;9.108;2023-04-05T00:44:31;11.70;;;10.80;;
18360;SDS011;9308;48.550;9.108;2023-04-05T00:47:01;11.97;;;10.97;;
18360;SDS011;9308;48.550;9.108;2023-04-05T00:49:31;12.87;;;11.87;;
18360;SDS011;9308;48.550;9.108;2023-04-05T00:51:57;12.20;;;11.17;;
18360;SDS011;9308;48.550;9.108;2023-04-05T00:54:23;12.17;;;11.10;;
18360;SDS011;9308;48.550;9.108;2023-04-05T00:56:50;12.13;;;10.93;;
18360;SDS011;9308;48.550;9.108;2023-04-05T00:59:18;12.00;;;11.10;;
18360;SDS011;9308;48.550;9.108;2023-04-05T01:01:43;10.93;;;9.93;;
18360;SDS011;9308;48.550;9.108;2023-04-05T01:04:23;11.23;;;10.33;;
18360;SDS011;9308;48.550;9.108;2023-04-05T01:07:12;35.70;;;32.00;;
18360;SDS011;9308;48.550;9.108;2023-04-05T01:12:27;15.73;;;14.27;;
18360;SDS011;9308;48.550;9.108;2023-04-05T01:14:56;14.27;;;12.97;;
18360;SDS011;9308;48.550;9.108;2023-04-05T01:17:22;13.30;;;12.17;;
18360;SDS011;9308;48.550;9.108;2023-04-05T01:19:59;12.37;;;11.33;;
18360;SDS011;9308;48.550;9.108;2023-04-05T01:22:35;12.30;;;11.20;;
18360;SDS011;9308;48.550;9.108;2023-04-05T01:31:24;12.97;;;11.87;;
18360;SDS011;9308;48.550;9.108;2023-04-05T01:36:25;12.50;;;11.50;;
18360;SDS011;9308;48.550;9.108;2023-04-05T01:39:13;11.27;;;10.37;;
18360;SDS011;9308;48.550;9.108;2023-04-05T01:41:41;11.80;;;10.90;;
18360;SDS011;9308;48.550;9.108;2023-04-05T01:44:07;13.00;;;11.77;;
18360;SDS011;9308;48.550;9.108;2023-04-05T01:46:32;12.13;;;11.17;;
18360;SDS011;9308;48.550;9.108;2023-04-05T01:48:58;12.40;;;11.40;;
18360;SDS011;9308;48.550;9.108;2023-04-05T01:51:23;11.50;;;10.60;;
18360;SDS011;9308;48.550;9.108;2023-04-05T01:53:49;10.73;;;9.83;;
18360;SDS011;9308;48.550;9.108;2023-04-05T01:56:15;10.83;;;9.93;;
18360;SDS011;9308;48.550;9.108;2023-04-05T01:58:40;11.53;;;10.50;;
18360;SDS011;9308;48.550;9.108;2023-04-05T02:01:06;10.60;;;9.60;;
18360;SDS011;9308;48.550;9.108;2023-04-05T02:03:31;10.70;;;9.77;;
18360;SDS011;9308;48.550;9.108;2023-04-05T02:05:57;10.40;;;9.50;;
18360;SDS011;9308;48.550;9.108;2023-04-05T02:08:22;11.70;;;10.67;;
18360;SDS011;9308;48.550;9.108;2023-04-05T02:10:48;11.00;;;9.90;;
18360;SDS011;9308;48.550;9.108;2023-04-05T02:13:13;11.20;;;10.20;;
18360;SDS011;9308;48.550;9.108;2023-04-05T02:15:39;11.27;;;10.17;;
18360;SDS011;9308;48.550;9.108;2023-04-05T02:18:05;10.57;;;9.77;;
18360;SDS011;9308;48.550;9.108;2023-04-05T02:20:32;11.50;;;10.50;;
18360;SDS011;9308;48.550;9.108;2023-04-05T02:22:58;10.03;;;9.20;;
18360;SDS011;9308;48.550;9.108;2023-04-05T02:25:24;11.00;;;10.10;;
18360;SDS011;9308;48.550;9.108;2023-04-05T02:27:50;10.50;;;9.80;;
18360;SDS011;9308;48.550;9.108;2023-04-05T02:30:16;10.80;;;9.97;;
18360;SDS011;9308;48.550;9.108;2023-04-05T02:32:41;11.43;;;10.50;;
18360;SDS011;9308;48.550;9.108;2023-04-05T02:35:07;11.43;;;10.40;;
18360;SDS011;9308;48.550;9.108;2023-04-05T02:37:34;10.80;;;9.90;;
18360;SDS011;9308;48.550;9.108;2023-04-05T02:39:59;11.10;;;10.10;;
18360;SDS011;9308;48.550;9.108;2023-04-05T02:42:25;10.27;;;9.37;;
18360;SDS011;9308;48.550;9.108;2023-04-05T02:44:51;10.50;;;9.43;;
18360;SDS011;9308;48.550;9.108;2023-04-05T02:47:17;12.20;;;11.20;;
18360;SDS011;9308;48.550;9.108;2023-04-05T02:49:48;10.00;;;9.20;;
18360;SDS011;9308;48.550;9.108;2023-04-05T02:52:14;12.00;;;10.93;;
18360;SDS011;9308;48.550;9.108;2023-04-05T02:54:40;10.93;;;10.00;;
18360;SDS011;9308;48.550;9.108;2023-04-05T02:57:05;9.93;;;9.20;;
18360;SDS011;9308;48.550;9.108;2023-04-05T02:59:35;11.50;;;10.50;;
18360;SDS011;9308;48.550;9.108;2023-04-05T03:02:02;12.30;;;9.97;;
18360;SDS011;9308;48.550;9.108;2023-04-05T03:04:28;11.50;;;10.40;;
18360;SDS011;9308;48.550;9.108;2023-04-05T03:06:54;10.73;;;9.70;;
18360;SDS011;9308;48.550;9.108;2023-04-05T03:09:21;10.70;;;9.80;;
18360;SDS011;9308;48.550;9.108;2023-04-05T03:11:47;11.00;;;10.10;;
18360;SDS011;9308;48.550;9.108;2023-04-05T03:14:13;10.70;;;9.80;;
18360;SDS011;9308;48.550;9.108;2023-04-05T03:16:38;10.70;;;9.90;;
18360;SDS011;9308;48.550;9.108;2023-04-05T03:19:04;11.07;;;10.00;;
18360;SDS011;9308;48.550;9.108;2023-04-05T03:21:30;10.47;;;9.67;;
18360;SDS011;9308;48.550;9.108;2023-04-05T03:23:57;9.83;;;9.03;;
18360;SDS011;9308;48.550;9.108;2023-04-05T03:26:24;10.50;;;9.60;;
18360;SDS011;9308;48.550;9.108;2023-04-05T03:28:50;10.87;;;9.87;;
18360;SDS011;9308;48.550;9.108;2023-04-05T03:31:15;10.67;;;9.87;;
18360;SDS011;9308;48.550;9.108;2023-04-05T03:33:41;10.83;;;10.07;;
18360;SDS011;9308;48.550;9.108;2023-04-05T03:36:06;11.07;;;10.07;;
18360;SDS011;9308;48.550;9.108;2023-04-05T03:38:32;11.77;;;10.70;;
18360;SDS011;9308;48.550;9.108;2023-04-05T03:40:57;11.90;;;10.23;;
18360;SDS011;9308;48.550;9.108;2023-04-05T03:43:23;12.40;;;10.93;;
18360;SDS011;9308;48.550;9.108;2023-04-05T03:45:48;12.13;;;11.03;;
18360;SDS011;9308;48.550;9.108;2023-04-05T03:48:14;12.10;;;10.97;;
18360;SDS011;9308;48.550;9.108;2023-04-05T03:50:44;11.50;;;10.60;;
18360;SDS011;9308;48.550;9.108;2023-04-05T03:53:12;11.70;;;10.70;;
18360;SDS011;9308;48.550;9.108;2023-04-05T03:55:38;11.93;;;10.93;;
18360;SDS011;9308;48.550;9.108;2023-04-05T03:58:04;11.57;;;10.57;;
18360;SDS011;9308;48.550;9.108;2023-04-05T04:00:30;11.70;;;10.60;;
18360;SDS011;9308;48.550;9.108;2023-04-05T04:02:55;11.53;;;10.57;;
18360;SDS011;9308;48.550;9.108;2023-04-05T04:05:21;12.23;;;11.33;;
18360;SDS011;9308;48.550;9.108;2023-04-05T04:07:46;12.73;;;11.60;;
18360;SDS011;9308;48.550;9.108;2023-04-05T04:10:13;12.30;;;11.20;;
18360;SDS011;9308;48.550;9.108;2023-04-05T04:12:40;14.63;;;13.33;;
18360;SDS011;9308;48.550;9.108;2023-04-05T04:15:06;17.43;;;16.10;;
18360;SDS011;9308;48.550;9.108;2023-04-05T04:17:32;14.50;;;13.20;;
18360;SDS011;9308;48.550;9.108;2023-04-05T04:20:00;13.10;;;11.90;;
18360;SDS011;9308;48.550;9.108;2023-04-05T04:22:26;13.20;;;12.00;;
18360;SDS011;9308;48.550;9.108;2023-04-05T04:24:57;12.20;;;11.00;;
18360;SDS011;9308;48.550;9.108;2023-04-05T04:27:29;12.30;;;11.30;;
18360;SDS011;9308;48.550;9.108;2023-04-05T04:29:55;12.90;;;11.70;;
18360;SDS011;9308;48.550;9.108;2023-04-05T04:32:28;12.37;;;11.27;;
18360;SDS011;9308;48.550;9.108;2023-04-05T04:35:15;13.33;;;12.10;;
18360;SDS011;9308;48.550;9.108;2023-04-05T04:37:44;13.57;;;12.33;;
18360;SDS011;9308;48.550;9.108;2023-04-05T04:40:11;12.90;;;11.80;;
18360;SDS011;9308;48.550;9.108;2023-04-05T04:42:44;12.77;;;11.70;;
18360;SDS011;9308;48.550;9.108;2023-04-05T04:45:15;13.40;;;12.17;;
18360;SDS011;9308;48.550;9.108;2023-04-05T04:47:46;14.33;;;13.17;;
18360;SDS011;9308;48.550;9.108;2023-04-05T04:50:12;14.03;;;12.73;;
18360;SDS011;9308;48.550;9.108;2023-04-05T04:52:40;13.20;;;11.60;;
18360;SDS011;9308;48.550;9.108;2023-04-05T04:55:07;13.00;;;11.80;;
18360;SDS011;9308;48.550;9.108;2023-04-05T04:57:33;11.30;;;10.40;;
18360;SDS011;9308;48.550;9.108;2023-04-05T04:59:58;12.73;;;11.63;;
18360;SDS011;9308;48.550;9.108;2023-04-05T05:02:24;13.30;;;12.23;;
18360;SDS011;9308;48.550;9.108;2023-04-05T05:04:51;11.33;;;10.33;;
18360;SDS011;9308;48.550;9.108;2023-04-05T05:07:16;13.90;;;12.70;;
18360;SDS011;9308;48.550;9.108;2023-04-05T05:09:43;15.00;;;13.50;;
18360;SDS011;9308;48.550;9.108;2023-04-05T05:12:08;12.93;;;11.80;;
18360;SDS011;9308;48.550;9.108;2023-04-05T05:14:34;12.57;;;11.50;;
18360;SDS011;9308;48.550;9.108;2023-04-05T05:16:59;12.93;;;11.83;;
18360;SDS011;9308;48.550;9.108;2023-04-05T05:19:25;12.37;;;11.17;;
18360;SDS011;9308;48.550;9.108;2023-04-05T05:21:51;11.93;;;10.80;;
18360;SDS011;9308;48.550;9.108;2023-04-05T05:24:18;12.90;;;11.80;;
18360;SDS011;9308;48.550;9.108;2023-04-05T05:26:44;13.10;;;11.90;;
18360;SDS011;9308;48.550;9.108;2023-04-05T05:29:09;13.03;;;11.83;;
18360;SDS011;9308;48.550;9.108;2023-04-05T05:31:35;13.23;;;12.23;;
18360;SDS011;9308;48.550;9.108;2023-04-05T05:34:00;13.30;;;12.10;;
18360;SDS011;9308;48.550;9.108;2023-04-05T05:36:26;14.60;;;13.33;;
18360;SDS011;9308;48.550;9.108;2023-04-05T05:38:52;13.13;;;12.13;;
18360;SDS011;9308;48.550;9.108;2023-04-05T05:41:18;14.30;;;13.00;;
18360;SDS011;9308;48.550;9.108;2023-04-05T05:43:45;12.10;;;11.17;;
18360;SDS011;9308;48.550;9.108;2023-04-05T05:46:11;14.60;;;13.30;;
18360;SDS011;9308;48.550;9.108;2023-04-05T05:48:36;16.90;;;15.40;;
18360;SDS011;9308;48.550;9.108;2023-04-05T05:51:02;14.20;;;13.10;;
18360;SDS011;9308;48.550;9.108;2023-04-05T05:53:34;12.43;;;11.50;;
18360;SDS011;9308;48.550;9.108;2023-04-05T05:56:00;12.67;;;11.67;;
18360;SDS011;9308;48.550;9.108;2023-04-05T05:58:26;12.87;;;11.87;;
18360;SDS011;9308;48.550;9.108;2023-04-05T06:00:51;14.03;;;12.63;;
18360;SDS011;9308;48.550;9.108;2023-04-05T06:03:20;12.60;;;11.60;;
18360;SDS011;9308;48.550;9.108;2023-04-05T06:05:50;52.13;;;43.10;;
18360;SDS011;9308;48.550;9.108;2023-04-05T06:08:16;51.20;;;44.80;;
18360;SDS011;9308;48.550;9.108;2023-04-05T06:10:42;35.27;;;31.57;;
18360;SDS011;9308;48.550;9.108;2023-04-05T06:13:07;33.17;;;30.00;;
18360;SDS011;9308;48.550;9.108;2023-04-05T06:15:32;19.47;;;17.70;;
18360;SDS011;9308;48.550;9.108;2023-04-05T06:17:58;17.63;;;16.07;;
18360;SDS011;9308;48.550;9.108;2023-04-05T06:20:23;17.40;;;16.00;;
18360;SDS011;9308;48.550;9.108;2023-04-05T06:22:49;20.30;;;18.40;;
18360;SDS011;9308;48.550;9.108;2023-04-05T06:25:14;16.20;;;14.87;;
18360;SDS011;9308;48.550;9.108;2023-04-05T06:27:40;15.30;;;14.07;;
18360;SDS011;9308;48.550;9.108;2023-04-05T06:30:05;17.70;;;16.10;;
18360;SDS011;9308;48.550;9.108;2023-04-05T06:32:31;15.37;;;14.17;;
18360;SDS011;9308;48.550;9.108;2023-04-05T06:34:57;14.13;;;13.03;;
18360;SDS011;9308;48.550;9.108;2023-04-05T06:37:22;15.93;;;14.00;;
18360;SDS011;9308;48.550;9.108;2023-04-05T06:39:48;15.77;;;14.47;;
18360;SDS011;9308;48.550;9.108;2023-04-05T06:42:13;16.03;;;14.67;;
18360;SDS011;9308;48.550;9.108;2023-04-05T06:44:38;15.73;;;14.43;;
18360;SDS011;9308;48.550;9.108;2023-04-05T06:47:04;14.60;;;13.20;;
18360;SDS011;9308;48.550;9.108;2023-04-05T06:49:29;13.90;;;12.70;;
18360;SDS011;9308;48.550;9.108;2023-04-05T06:51:55;12.83;;;11.53;;
18360;SDS011;9308;48.550;9.108;2023-04-05T06:54:20;12.93;;;11.83;;
18360;SDS011;9308;48.550;9.108;2023-04-05T06:56:48;13.20;;;12.03;;
18360;SDS011;9308;48.550;9.108;2023-04-05T06:59:13;14.27;;;12.90;;
18360;SDS011;9308;48.550;9.108;2023-04-05T07:01:38;13.17;;;12.00;;
18360;SDS011;9308;48.550;9.108;2023-04-05T07:04:04;12.40;;;11.33;;
18360;SDS011;9308;48.550;9.108;2023-04-05T07:06:30;12.40;;;11.50;;
18360;SDS011;9308;48.550;9.108;2023-04-05T07:08:58;13.10;;;11.97;;
18360;SDS011;9308;48.550;9.108;2023-04-05T07:11:24;12.50;;;11.50;;
18360;SDS011;9308;48.550;9.108;2023-04-05T07:13:49;12.90;;;11.80;;
18360;SDS011;9308;48.550;9.108;2023-04-05T07:16:15;12.30;;;11.20;;
18360;SDS011;9308;48.550;9.108;2023-04-05T07:18:42;11.50;;;10.50;;
18360;SDS011;9308;48.550;9.108;2023-04-05T07:21:07;12.47;;;11.43;;
18360;SDS011;9308;48.550;9.108;2023-04-05T07:23:32;12.90;;;11.70;;
18360;SDS011;9308;48.550;9.108;2023-04-05T07:25:59;11.47;;;10.57;;
18360;SDS011;9308;48.550;9.108;2023-04-05T07:28:29;12.10;;;11.10;;
18360;SDS011;9308;48.550;9.108;2023-04-05T07:30:55;11.57;;;10.47;;
18360;SDS011;9308;48.550;9.108;2023-04-05T07:33:21;11.13;;;10.13;;
18360;SDS011;9308;48.550;9.108;2023-04-05T07:35:55;14.57;;;11.13;;
18360;SDS011;9308;48.550;9.108;2023-04-05T07:38:21;10.77;;;9.87;;
18360;SDS011;9308;48.550;9.108;2023-04-05T07:40:47;10.33;;;9.53;;
18360;SDS011;9308;48.550;9.108;2023-04-05T07:43:14;11.30;;;10.40;;
18360;SDS011;9308;48.550;9.108;2023-04-05T07:45:39;10.40;;;9.40;;
18360;SDS011;9308;48.550;9.108;2023-04-05T07:48:05;10.23;;;9.40;;
18360;SDS011;9308;48.550;9.108;2023-04-05T07:50:31;9.73;;;8.87;;
18360;SDS011;9308;48.550;9.108;2023-04-05T07:52:58;10.40;;;9.60;;
18360;SDS011;9308;48.550;9.108;2023-04-05T07:55:23;11.27;;;10.37;;
18360;SDS011;9308;48.550;9.108;2023-04-05T07:57:51;9.70;;;8.90;;
18360;SDS011;9308;48.550;9.108;2023-04-05T08:00:18;9.83;;;9.03;;
18360;SDS011;9308;48.550;9.108;2023-04-05T08:02:43;12.00;;;10.80;;
18360;SDS011;9308;48.550;9.108;2023-04-05T08:05:09;11.07;;;10.07;;
18360;SDS011;9308;48.550;9.108;2023-04-05T08:07:34;10.63;;;9.73;;
18360;SDS011;9308;48.550;9.108;2023-04-05T08:10:00;11.80;;;10.87;;
18360;SDS011;9308;48.550;9.108;2023-04-05T08:12:26;10.40;;;9.50;;
18360;SDS011;9308;48.550;9.108;2023-04-05T08:14:53;9.80;;;9.00;;
18360;SDS011;9308;48.550;9.108;2023-04-05T08:17:19;10.17;;;9.17;;
18360;SDS011;9308;48.550;9.108;2023-04-05T08:19:44;10.10;;;9.20;;
18360;SDS011;9308;48.550;9.108;2023-04-05T08:22:10;10.30;;;9.20;;
18360;SDS011;9308;48.550;9.108;2023-04-05T08:24:36;10.20;;;9.30;;
18360;SDS011;9308;48.550;9.108;2023-04-05T08:27:01;11.27;;;10.23;;
18360;SDS011;9308;48.550;9.108;2023-04-05T08:29:26;11.17;;;10.37;;
18360;SDS011;9308;48.550;9.108;2023-04-05T08:31:54;10.37;;;9.57;;
18360;SDS011;9308;48.550;9.108;2023-04-05T08:34:21;10.50;;;9.50;;
18360;SDS011;9308;48.550;9.108;2023-04-05T08:36:46;11.50;;;10.40;;
18360;SDS011;9308;48.550;9.108;2023-04-05T08:39:12;10.80;;;9.93;;
18360;SDS011;9308;48.550;9.108;2023-04-05T08:41:40;10.47;;;9.47;;
18360;SDS011;9308;48.550;9.108;2023-04-05T08:44:09;9.60;;;8.90;;
18360;SDS011;9308;48.550;9.108;2023-04-05T08:46:35;8.80;;;7.47;;
18360;SDS011;9308;48.550;9.108;2023-04-05T08:49:05;8.03;;;7.43;;
18360;SDS011;9308;48.550;9.108;2023-04-05T08:51:32;10.07;;;9.27;;
18360;SDS011;9308;48.550;9.108;2023-04-05T08:53:59;10.10;;;9.20;;
18360;SDS011;9308;48.550;9.108;2023-04-05T08:56:26;10.07;;;9.17;;
18360;SDS011;9308;48.550;9.108;2023-04-05T09:01:19;9.00;;;8.30;;
18360;SDS011;9308;48.550;9.108;2023-04-05T09:03:45;7.63;;;6.93;;
18360;SDS011;9308;48.550;9.108;2023-04-05T09:06:12;8.40;;;7.70;;
18360;SDS011;9308;48.550;9.108;2023-04-05T09:08:38;8.77;;;8.07;;
18360;SDS011;9308;48.550;9.108;2023-04-05T09:11:05;6.47;;;5.97;;
18360;SDS011;9308;48.550;9.108;2023-04-05T09:13:30;6.57;;;6.17;;
18360;SDS011;9308;48.550;9.108;2023-04-05T09:15:56;7.30;;;6.80;;
18360;SDS011;9308;48.550;9.108;2023-04-05T09:18:22;7.03;;;6.43;;
18360;SDS011;9308;48.550;9.108;2023-04-05T09:20:47;6.10;;;5.60;;
18360;SDS011;9308;48.550;9.108;2023-04-05T09:23:13;6.20;;;5.70;;
18360;SDS011;9308;48.550;9.108;2023-04-05T09:25:38;7.00;;;6.30;;
18360;SDS011;9308;48.550;9.108;2023-04-05T09:28:06;5.00;;;4.70;;
18360;SDS011;9308;48.550;9.108;2023-04-05T09:30:36;5.93;;;5.43;;
18360;SDS011;9308;48.550;9.108;2023-04-05T09:33:02;5.73;;;5.33;;
18360;SDS011;9308;48.550;9.108;2023-04-05T09:35:31;6.07;;;5.53;;
18360;SDS011;9308;48.550;9.108;2023-04-05T09:37:58;5.90;;;5.50;;
18360;SDS011;9308;48.550;9.108;2023-04-05T09:40:45;5.73;;;5.23;;
18360;SDS011;9308;48.550;9.108;2023-04-05T09:43:12;5.77;;;5.37;;
18360;SDS011;9308;48.550;9.108;2023-04-05T09:45:39;5.87;;;5.40;;
18360;SDS011;9308;48.550;9.108;2023-04-05T09:48:06;6.27;;;5.77;;
18360;SDS011;9308;48.550;9.108;2023-04-05T09:50:32;7.53;;;6.17;;
18360;SDS011;9308;48.550;9.108;2023-04-05T09:53:05;6.07;;;5.57;;
18360;SDS011;9308;48.550;9.108;2023-04-05T09:55:39;7.00;;;6.50;;
18360;SDS011;9308;48.550;9.108;2023-04-05T09:58:05;6.50;;;6.00;;
18360;SDS011;9308;48.550;9.108;2023-04-05T10:00:56;7.77;;;6.80;;
18360;SDS011;9308;48.550;9.108;2023-04-05T10:03:23;8.10;;;7.37;;
18360;SDS011;9308;48.550;9.108;2023-04-05T10:05:55;7.60;;;7.00;;
18360;SDS011;9308;48.550;9.108;2023-04-05T10:08:21;6.73;;;6.00;;
18360;SDS011;9308;48.550;9.108;2023-04-05T10:10:47;6.53;;;5.93;;
18360;SDS011;9308;48.550;9.108;2023-04-05T10:13:16;6.47;;;6.00;;
18360;SDS011;9308;48.550;9.108;2023-04-05T10:15:43;6.30;;;5.80;;
18360;SDS011;9308;48.550;9.108;2023-04-05T10:18:17;7.10;;;6.50;;
18360;SDS011;9308;48.550;9.108;2023-04-05T10:20:48;8.03;;;7.23;;
18360;SDS011;9308;48.550;9.108;2023-04-05T10:23:16;7.77;;;6.60;;
18360;SDS011;9308;48.550;9.108;2023-04-05T10:33:38;7.27;;;6.77;;
18360;SDS011;9308;48.550;9.108;2023-04-05T10:39:18;8.10;;;7.50;;
18360;SDS011;9308;48.550;9.108;2023-04-05T10:41:53;8.40;;;7.80;;
18360;SDS011;9308;48.550;9.108;2023-04-05T10:44:24;8.03;;;7.40;;
18360;SDS011;9308;48.550;9.108;2023-04-05T10:46:50;7.90;;;7.30;;
18360;SDS011;9308;48.550;9.108;2023-04-05T10:51:45;8.20;;;7.50;;
18360;SDS011;9308;48.550;9.108;2023-04-05T10:54:12;8.70;;;7.90;;
18360;SDS011;9308;48.550;9.108;2023-04-05T10:56:41;8.13;;;7.53;;
18360;SDS011;9308;48.550;9.108;2023-04-05T10:59:07;9.17;;;8.20;;
18360;SDS011;9308;48.550;9.108;2023-04-05T11:01:34;9.17;;;8.27;;
18360;SDS011;9308;48.550;9.108;2023-04-05T11:04:10;8.87;;;8.07;;
18360;SDS011;9308;48.550;9.108;2023-04-05T11:06:37;8.83;;;8.13;;
18360;SDS011;9308;48.550;9.108;2023-04-05T11:09:16;9.53;;;8.70;;
18360;SDS011;9308;48.550;9.108;2023-04-05T11:11:44;8.70;;;8.10;;
18360;SDS011;9308;48.550;9.108;2023-04-05T11:14:17;8.80;;;8.00;;
18360;SDS011;9308;48.550;9.108;2023-04-05T11:16:47;7.70;;;7.10;;
18360;SDS011;9308;48.550;9.108;2023-04-05T11:19:16;8.70;;;8.00;;
18360;SDS011;9308;48.550;9.108;2023-04-05T11:21:42;9.17;;;8.47;;
18360;SDS011;9308;48.550;9.108;2023-04-05T11:24:11;8.80;;;8.00;;
18360;SDS011;9308;48.550;9.108;2023-04-05T11:29:05;7.77;;;7.27;;
18360;SDS011;9308;48.550;9.108;2023-04-05T11:31:31;8.57;;;7.70;;
18360;SDS011;9308;48.550;9.108;2023-04-05T11:33:57;8.60;;;7.90;;
18360;SDS011;9308;48.550;9.108;2023-04-05T11:42:04;7.57;;;7.00;;
18360;SDS011;9308;48.550;9.108;2023-04-05T11:47:09;9.00;;;7.50;;
18360;SDS011;9308;48.550;9.108;2023-04-05T11:49:35;7.97;;;7.37;;
18360;SDS011;9308;48.550;9.108;2023-04-05T11:52:13;8.83;;;8.13;;
18360;SDS011;9308;48.550;9.108;2023-04-05T11:54:39;8.53;;;7.93;;
18360;SDS011;9308;48.550;9.108;2023-04-05T11:57:17;7.50;;;7.00;;
18360;SDS011;9308;48.550;9.108;2023-04-05T11:59:45;7.93;;;7.33;;
18360;SDS011;9308;48.550;9.108;2023-04-05T12:02:10;7.60;;;7.00;;
18360;SDS011;9308;48.550;9.108;2023-04-05T12:04:36;7.60;;;6.90;;
18360;SDS011;9308;48.550;9.108;2023-04-05T12:07:18;7.83;;;7.23;;
18360;SDS011;9308;48.550;9.108;2023-04-05T12:10:00;8.63;;;8.03;;
18360;SDS011;9308;48.550;9.108;2023-04-05T12:12:34;7.40;;;6.80;;
18360;SDS011;9308;48.550;9.108;2023-04-05T12:15:02;7.40;;;6.90;;
18360;SDS011;9308;48.550;9.108;2023-04-05T12:17:41;8.10;;;7.50;;
18360;SDS011;9308;48.550;9.108;2023-04-05T12:20:18;7.50;;;7.00;;
18360;SDS011;9308;48.550;9.108;2023-04-05T12:22:45;7.50;;;7.00;;
18360;SDS011;9308;48.550;9.108;2023-04-05T12:25:12;7.50;;;7.00;;
18360;SDS011;9308;48.550;9.108;2023-04-05T12:27:39;8.93;;;8.13;;
18360;SDS011;9308;48.550;9.108;2023-04-05T12:30:09;8.13;;;7.63;;
18360;SDS011;9308;48.550;9.108;2023-04-05T12:35:21;7.33;;;6.80;;
18360;SDS011;9308;48.550;9.108;2023-04-05T12:37:56;7.93;;;7.43;;
18360;SDS011;9308;48.550;9.108;2023-04-05T12:40:23;7.77;;;7.27;;
18360;SDS011;9308;48.550;9.108;2023-04-05T12:42:49;8.30;;;7.60;;
18360;SDS011;9308;48.550;9.108;2023-04-05T12:45:15;8.40;;;7.90;;
18360;SDS011;9308;48.550;9.108;2023-04-05T12:50:18;8.53;;;7.90;;
18360;SDS011;9308;48.550;9.108;2023-04-05T12:53:07;8.23;;;7.53;;
18360;SDS011;9308;48.550;9.108;2023-04-05T12:55:41;8.23;;;7.63;;
18360;SDS011;9308;48.550;9.108;2023-04-05T12:58:09;7.73;;;7.03;;
18360;SDS011;9308;48.550;9.108;2023-04-05T13:00:35;8.50;;;7.80;;
18360;SDS011;9308;48.550;9.108;2023-04-05T13:03:00;8.03;;;7.43;;
18360;SDS011;9308;48.550;9.108;2023-04-05T13:05:26;8.57;;;7.83;;
18360;SDS011;9308;48.550;9.108;2023-04-05T13:07:53;7.83;;;7.23;;
18360;SDS011;9308;48.550;9.108;2023-04-05T13:10:20;7.87;;;7.37;;
18360;SDS011;9308;48.550;9.108;2023-04-05T13:12:46;9.07;;;8.40;;
18360;SDS011;9308;48.550;9.108;2023-04-05T13:15:12;8.60;;;7.90;;
18360;SDS011;9308;48.550;9.108;2023-04-05T13:17:39;8.53;;;7.80;;
18360;SDS011;9308;48.550;9.108;2023-04-05T13:20:10;8.50;;;7.90;;
18360;SDS011;9308;48.550;9.108;2023-04-05T13:22:36;7.57;;;6.97;;
18360;SDS011;9308;48.550;9.108;2023-04-05T13:25:02;7.87;;;7.27;;
18360;SDS011;9308;48.550;9.108;2023-04-05T13:27:27;7.10;;;6.70;;
18360;SDS011;9308;48.550;9.108;2023-04-05T13:29:53;7.70;;;7.20;;
18360;SDS011;9308;48.550;9.108;2023-04-05T13:32:18;7.20;;;6.77;;
18360;SDS011;9308;48.550;9.108;2023-04-05T13:34:44;7.87;;;7.20;;
18360;SDS011;9308;48.550;9.108;2023-04-05T13:37:09;7.60;;;7.00;;
18360;SDS011;9308;48.550;9.108;2023-04-05T13:39:35;7.20;;;6.70;;
18360;SDS011;9308;48.550;9.108;2023-04-05T13:42:00;6.50;;;6.00;;
18360;SDS011;9308;48.550;9.108;2023-04-05T13:44:26;7.47;;;6.97;;
18360;SDS011;9308;48.550;9.108;2023-04-05T13:46:51;7.07;;;6.57;;
18360;SDS011;9308;48.550;9.108;2023-04-05T13:49:16;6.33;;;5.93;;
18360;SDS011;9308;48.550;9.108;2023-04-05T13:51:42;6.10;;;5.80;;
18360;SDS011;9308;48.550;9.108;2023-04-05T13:54:08;6.13;;;5.73;;
18360;SDS011;9308;48.550;9.108;2023-04-05T13:56:38;5.70;;;5.40;;
18360;SDS011;9308;48.550;9.108;2023-04-05T13:59:03;6.93;;;6.43;;
18360;SDS011;9308;48.550;9.108;2023-04-05T14:01:29;6.83;;;6.30;;
18360;SDS011;9308;48.550;9.108;2023-04-05T14:03:54;7.20;;;6.80;;
18360;SDS011;9308;48.550;9.108;2023-04-05T14:06:20;7.17;;;6.43;;
18360;SDS011;9308;48.550;9.108;2023-04-05T14:08:46;6.50;;;6.10;;
18360;SDS011;9308;48.550;9.108;2023-04-05T14:11:11;6.53;;;6.20;;
18360;SDS011;9308;48.550;9.108;2023-04-05T14:13:37;6.20;;;5.80;;
18360;SDS011;9308;48.550;9.108;2023-04-05T14:16:02;6.03;;;5.73;;
18360;SDS011;9308;48.550;9.108;2023-04-05T14:18:28;6.50;;;6.10;;
18360;SDS011;9308;48.550;9.108;2023-04-05T14:20:53;7.30;;;6.80;;
18360;SDS011;9308;48.550;9.108;2023-04-05T14:23:20;7.30;;;6.80;;
18360;SDS011;9308;48.550;9.108;2023-04-05T14:25:46;6.50;;;6.10;;
18360;SDS011;9308;48.550;9.108;2023-04-05T14:28:12;7.10;;;6.70;;
18360;SDS011;9308;48.550;9.108;2023-04-05T14:30:37;7.07;;;6.67;;
18360;SDS011;9308;48.550;9.108;2023-04-05T14:33:03;6.43;;;6.03;;
18360;SDS011;9308;48.550;9.108;2023-04-05T14:35:28;6.10;;;5.70;;
18360;SDS011;9308;48.550;9.108;2023-04-05T14:37:54;6.17;;;5.77;;
18360;SDS011;9308;48.550;9.108;2023-04-05T14:40:19;6.27;;;5.87;;
18360;SDS011;9308;48.550;9.108;2023-04-05T14:42:45;5.83;;;5.37;;
18360;SDS011;9308;48.550;9.108;2023-04-05T14:45:10;6.37;;;5.87;;
18360;SDS011;9308;48.550;9.108;2023-04-05T14:47:35;6.23;;;5.83;;
18360;SDS011;9308;48.550;9.108;2023-04-05T14:50:01;6.60;;;6.20;;
18360;SDS011;9308;48.550;9.108;2023-04-05T14:52:26;6.80;;;6.40;;
18360;SDS011;9308;48.550;9.108;2023-04-05T14:54:52;6.40;;;6.00;;
18360;SDS011;9308;48.550;9.108;2023-04-05T14:57:17;7.07;;;6.53;;
18360;SDS011;9308;48.550;9.108;2023-04-05T14:59:42;5.90;;;5.60;;
18360;SDS011;9308;48.550;9.108;2023-04-05T15:02:08;6.70;;;6.30;;
18360;SDS011;9308;48.550;9.108;2023-04-05T15:04:33;6.43;;;6.03;;
18360;SDS011;9308;48.550;9.108;2023-04-05T15:06:59;6.60;;;6.27;;
18360;SDS011;9308;48.550;9.108;2023-04-05T15:09:25;6.60;;;6.20;;
18360;SDS011;9308;48.550;9.108;2023-04-05T15:11:50;6.47;;;5.93;;
18360;SDS011;9308;48.550;9.108;2023-04-05T15:14:17;7.07;;;6.57;;
18360;SDS011;9308;48.550;9.108;2023-04-05T15:16:42;6.80;;;6.40;;
18360;SDS011;9308;48.550;9.108;2023-04-05T15:19:08;6.33;;;5.93;;
18360;SDS011;9308;48.550;9.108;2023-04-05T15:21:33;6.73;;;6.33;;
18360;SDS011;9308;48.550;9.108;2023-04-05T15:23:59;6.97;;;6.47;;
18360;SDS011;9308;48.550;9.108;2023-04-05T15:26:26;6.30;;;5.90;;
18360;SDS011;9308;48.550;9.108;2023-04-05T15:28:52;5.80;;;5.50;;
18360;SDS011;9308;48.550;9.108;2023-04-05T15:31:17;6.60;;;6.10;;